Date,TemperatureHighF,TemperatureAvgF,TemperatureLowF,DewpointHighF,DewpointAvgF,DewpointLowF,HumidityHigh,HumidityAvg,HumidityLow,PressureMaxIn,PressureMinIn,WindSpeedMaxMPH,WindSpeedAvgMPH,GustSpeedMaxMPH,PrecipitationSumIn
2014-1-1,56.5,43.9,29.1,30.1,27.2,22.8,77,53,35,30.28,30.22,10,2,10,0.00
2014-1-2,60.4,43.5,30.7,30.5,25.8,23.2,77,53,32,30.22,30.02,19,5,19,0.00
2014-1-3,54.3,40.5,26.1,32.3,21.2,12.7,80,49,21,30.16,29.99,14,1,15,0.00
2014-1-4,50.4,30.9,18.0,18.9,14.2,6.9,84,53,26,30.31,30.16,14,1,14,0.00
2014-1-5,55.2,32.6,22.6,19.6,9.5,4.0,46,38,23,30.37,30.28,17,2,17,0.00
2014-1-6,46.0,35.5,28.6,14.6,8.9,4.4,40,33,28,30.28,30.08,17,4,17,0.00
2014-1-7,46.2,38.9,36.1,37.8,27.0,9.1,92,65,31,30.11,29.99,14,5,19,0.00
2014-1-8,46.6,39.1,33.8,36.1,33.8,29.5,98,82,54,30.05,29.84,17,6,27,0.07
2014-1-11,39.2,34.2,30.0,36.7,29.0,20.4,98,82,48,29.96,29.69,25,8,25,0.07
2014-1-12,41.0,34.9,29.3,34.3,29.5,18.8,95,80,59,30.31,29.96,19,6,19,0.13
2014-1-14,54.3,47.7,38.3,24.5,22.4,20.5,53,37,30,30.55,30.49,13,5,13,0.00
2014-1-15,61.3,47.1,30.6,25.2,17.9,11.4,60,32,25,26.22,26.22,8,1,11,0.00
2014-1-16,64.4,40.9,27.3,26.8,18.1,13.9,61,42,23,26.22,26.10,12,3,12,0.00
2014-1-17,63.5,52.4,35.2,26.1,21.8,15.3,45,31,24,26.07,26.02,9,2,9,0.00
2014-1-18,65.3,42.8,30.0,28.5,19.6,15.6,58,41,24,26.05,25.93,13,4,13,0.00
2014-1-19,65.8,44.4,31.5,28.3,20.2,15.4,55,39,23,26.02,25.90,17,3,17,0.00
2014-1-20,44.4,30.8,22.8,26.7,23.4,18.5,96,75,45,26.10,26.02,6,0,6,0.00
2014-1-21,60.3,40.2,28.4,31.8,23.1,16.2,80,53,27,26.10,26.02,13,4,13,0.00
2014-1-22,56.1,39.0,30.6,32.3,22.3,12.4,97,54,36,26.05,25.99,14,1,14,0.00
2014-1-23,30.4,24.3,22.3,28.9,23.4,21.6,98,96,92,26.19,26.05,10,0,10,0.00
2014-1-24,42.4,28.7,19.8,26.2,22.1,19.1,98,78,46,26.22,26.13,10,1,10,0.00
2014-1-25,63.3,42.3,26.8,28.1,19.7,12.3,71,44,25,26.13,26.02,12,2,12,0.00
2014-1-26,67.6,41.5,30.2,28.5,20.3,12.8,76,45,23,26.02,25.87,12,2,12,0.00
2014-1-27,33.6,25.2,21.7,24.3,21.9,17.0,97,88,55,26.02,25.87,6,0,6,0.00
2014-1-28,43.3,32.7,24.8,42.8,31.8,24.2,98,97,81,26.02,25.78,11,1,17,0.07
2014-1-29,45.7,41.4,36.1,43.7,34.1,20.8,98,77,45,25.78,25.60,17,6,27,0.07
2014-1-30,49.8,35.6,27.3,22.3,19.2,16.5,69,52,31,25.69,25.63,10,1,13,0.00
2014-1-31,46.9,32.8,25.7,21.9,19.1,15.9,80,59,37,25.84,25.69,6,2,9,0.00
2014-2-1,51.8,33.2,21.7,21.7,18.4,14.5,85,57,29,25.84,25.72,10,2,14,0.00
2014-2-2,42.1,31.4,27.0,26.6,21.4,17.1,95,67,41,25.75,25.60,9,1,9,0.00
2014-2-3,40.1,28.3,23.4,26.0,19.3,9.7,94,71,40,25.78,25.63,17,0,17,0.13
2014-2-4,24.4,19.6,11.5,21.8,16.0,7.6,92,86,74,25.90,25.78,10,0,10,0.00
2014-2-5,17.4,7.7,2.3,9.9,-5.3,-11.7,84,55,49,25.96,25.84,8,0,8,0.00
2014-2-6,2.8,2.0,1.8,-11.3,-11.9,-12.2,51,51,51,25.84,25.72,0,0,3,0.00
2014-2-9,51.1,48.6,46.8,36.0,34.3,31.2,65,58,51,25.78,25.75,8,0,8,0.07
2014-2-10,45.7,37.0,29.8,31.5,28.5,21.9,94,72,53,30.18,25.90,19,6,19,0.00
2014-2-11,37.6,36.4,35.8,29.5,27.5,23.1,77,70,56,30.15,30.12,19,7,19,0.00
2014-2-12,43.5,41.5,37.6,42.5,40.6,35.5,98,97,79,30.00,29.94,15,4,15,0.00
2014-2-13,46.9,41.2,36.3,38.0,29.2,20.3,98,64,38,30.12,29.94,20,4,20,0.00
2014-2-14,39.4,36.8,34.2,38.9,36.3,33.7,98,98,97,30.03,29.85,23,6,23,0.60
2014-2-15,53.2,39.8,32.9,44.8,36.1,17.4,98,88,50,29.97,29.59,31,6,31,0.13
2014-2-16,43.5,35.0,29.5,24.6,20.1,15.6,80,55,39,30.06,29.80,24,6,24,0.13
2014-2-17,51.1,38.7,34.3,32.6,24.7,18.5,92,58,38,29.97,25.72,30,6,30,0.00
2014-2-18,46.6,37.7,27.3,36.2,29.7,13.5,97,73,53,25.78,25.54,34,7,34,0.00
2014-2-19,40.8,30.4,23.9,24.9,19.0,12.1,95,64,39,25.93,25.72,17,3,17,0.46
2014-2-20,41.2,34.3,29.1,31.1,27.4,22.9,93,77,50,25.93,25.90,24,6,24,0.46
2014-2-21,55.4,42.3,32.5,30.1,22.9,12.4,86,50,26,25.93,25.87,9,1,9,0.00
2014-2-22,53.1,39.5,29.5,26.7,20.9,13.1,73,48,36,25.87,25.78,13,2,13,0.00
2014-2-23,50.5,38.9,30.6,35.7,27.0,20.0,87,65,30,25.78,25.69,23,6,23,0.00
2014-2-24,53.4,41.6,32.4,41.8,37.2,31.9,98,85,62,25.87,25.78,15,2,15,0.00
2014-2-25,32.5,28.7,25.3,32.0,28.2,24.9,98,98,98,25.93,25.84,0,0,0,0.00
2014-2-26,28.4,26.1,23.7,27.9,25.6,23.2,98,98,98,25.84,25.54,0,0,0,0.00
2014-2-27,38.5,35.2,28.8,38.0,34.6,28.3,98,98,95,25.54,25.48,8,1,8,0.27
2014-2-28,46.6,35.3,30.7,38.8,33.4,29.6,98,93,72,25.54,25.31,10,1,10,0.00
2014-3-1,34.5,31.3,29.8,32.8,30.3,29.3,98,96,86,25.54,25.34,2,0,2,0.00
2014-3-2,48.0,39.8,29.8,43.7,36.3,29.2,98,88,68,25.66,25.51,20,5,20,0.60
2014-3-3,51.3,41.1,36.0,39.1,35.5,30.6,98,82,48,25.75,25.60,26,7,26,0.07
2014-3-4,55.8,45.0,36.9,34.5,31.5,28.1,86,61,37,25.81,25.72,17,5,17,0.00
2014-3-5,54.5,46.4,42.3,46.8,40.0,33.1,98,79,61,29.82,25.63,26,8,26,0.13
2014-3-6,44.2,40.0,36.7,35.4,32.3,28.1,93,74,54,29.79,29.73,23,11,37,0.00
2014-3-7,62.2,50.5,34.9,30.8,25.5,20.8,85,39,27,30.20,30.11,12,2,12,0.00
2014-3-8,59.9,45.6,34.9,43.1,30.8,23.3,80,58,33,30.14,29.97,24,8,24,0.00
2014-3-9,56.7,48.8,41.0,45.6,43.8,38.7,98,84,60,30.03,29.94,23,6,23,0.27
2014-3-10,41.0,36.8,33.6,38.7,35.5,32.5,98,95,89,30.03,29.91,10,1,10,0.07
2014-3-19,45.9,40.3,37.2,23.3,21.3,19.6,56,46,38,30.06,30.03,16,4,16,0.20
2014-3-20,54.3,37.3,27.5,25.7,19.0,12.6,78,51,26,30.17,30.03,9,0,9,0.00
2014-3-21,53.8,35.4,25.7,22.0,16.1,12.7,67,47,28,30.17,30.06,9,0,10,0.00
2014-3-22,63.3,41.0,26.4,25.2,17.3,12.5,56,41,21,30.17,30.11,10,0,10,0.00
2014-3-23,68.4,53.7,29.1,27.9,20.4,11.9,60,28,17,30.17,30.11,8,0,8,0.00
2014-3-24,72.5,48.8,32.4,30.5,21.7,13.5,53,36,20,30.17,29.94,17,3,17,0.00
2014-3-25,51.4,43.5,36.1,36.3,25.6,18.7,79,50,36,29.94,29.67,21,4,25,0.00
2014-3-26,45.5,36.2,32.5,38.2,30.4,24.2,98,81,44,29.70,29.58,18,5,18,0.00
2014-3-27,45.9,36.0,31.8,37.1,30.5,24.5,98,83,46,29.82,29.61,17,6,17,0.00
2014-3-28,44.6,40.1,36.9,39.1,37.3,36.3,98,90,76,29.82,29.76,26,7,26,0.00
2014-3-29,50.2,39.3,33.8,36.9,29.9,22.4,98,72,39,29.85,29.79,29,7,29,0.13
2014-3-30,46.9,36.8,31.1,30.8,25.2,17.1,95,66,33,29.94,29.85,16,3,16,0.00
2014-3-31,48.2,36.7,29.1,30.1,25.8,20.6,98,68,37,29.91,29.70,16,3,16,0.00
2014-4-1,34.5,33.5,30.6,33.7,32.3,30.1,98,96,90,29.82,29.73,4,0,4,0.00
2014-4-2,56.3,39.5,29.3,33.1,28.2,22.8,97,69,34,30.00,29.82,9,0,9,0.67
2014-4-3,52.0,40.8,30.9,29.4,26.3,19.8,89,59,31,30.00,29.88,15,4,15,0.34
2014-4-4,52.3,40.6,33.8,29.9,25.9,21.0,83,58,31,29.94,29.88,14,4,14,0.00
2014-4-7,78.1,68.6,56.5,34.9,32.9,31.0,41,27,21,30.20,30.14,13,2,13,0.00
2014-4-8,75.9,63.2,50.4,37.8,30.2,24.8,61,30,21,30.14,30.06,15,5,15,0.00
2014-4-9,51.1,50.5,50.2,32.3,31.4,30.0,50,48,45,30.09,30.09,9,4,9,0.00
2014-4-10,71.4,60.6,45.1,30.6,26.0,19.6,54,27,22,30.11,30.06,10,0,10,0.00
2014-4-11,75.7,54.1,38.8,33.1,24.9,16.6,54,34,21,30.06,29.97,12,1,12,0.00
2014-4-12,70.2,54.7,38.7,29.0,24.5,17.8,55,32,19,30.09,29.94,12,0,12,0.00
2014-4-13,67.8,49.2,36.0,28.7,24.4,16.3,71,41,23,30.23,30.09,10,1,10,0.00
2014-4-14,74.5,53.8,34.9,32.1,24.1,15.1,51,33,18,30.20,30.06,15,2,15,0.00
2014-4-15,59.9,47.2,36.1,34.2,26.7,20.9,70,47,27,30.11,30.06,14,1,14,0.00
2014-4-16,64.6,50.4,35.8,34.3,29.6,23.4,73,46,29,30.06,29.97,11,1,11,0.00
2014-4-17,49.3,45.2,41.0,45.7,35.1,27.6,93,68,49,29.97,29.85,17,3,17,0.00
2014-4-18,66.2,47.1,31.1,29.4,22.9,15.1,87,44,20,30.03,29.91,12,1,12,0.00
2014-4-19,58.8,45.4,35.2,30.7,24.1,14.8,77,45,22,30.14,29.85,22,6,22,0.00
2014-4-20,70.2,49.7,33.1,30.7,26.9,22.0,79,46,22,30.20,30.09,16,3,16,0.00
2014-4-21,64.2,49.6,39.7,41.2,31.4,24.6,98,52,30,30.11,29.82,22,2,22,0.07
2014-4-22,46.2,37.8,34.7,39.4,27.7,16.2,98,71,38,29.94,29.79,15,3,15,0.00
2014-4-23,46.8,37.0,32.9,38.6,31.5,25.1,91,80,62,30.00,29.82,19,8,19,0.00
2014-4-24,54.1,44.1,38.3,39.3,32.9,23.1,98,68,36,29.88,29.76,25,6,25,0.00
2014-4-25,46.6,37.4,31.3,36.4,31.4,24.4,98,80,49,29.85,29.76,9,0,9,0.11
2014-4-26,49.8,37.8,27.1,34.5,22.9,16.8,98,59,29,29.82,29.73,15,4,15,0.11
2014-4-27,36.1,34.9,33.3,34.7,28.6,19.3,98,79,53,29.82,29.70,22,6,22,0.00
2014-4-30,82.6,67.5,45.7,35.9,29.2,23.2,42,25,14,30.38,30.23,11,2,11,0.00
2014-5-1,84.0,57.8,46.6,32.1,27.5,23.3,47,33,14,30.26,30.11,15,2,15,0.00
2014-5-27,65.5,55.2,43.3,36.7,31.3,24.3,66,42,27,30.06,30.00,14,2,14,0.00
2014-5-28,59.2,45.6,37.0,34.9,30.2,26.6,78,57,34,30.14,30.03,13,1,13,0.00
2014-5-29,37.6,36.7,35.4,31.2,30.9,30.5,84,79,77,30.14,30.14,5,0,6,0.00
2014-6-16,61.5,50.0,40.6,36.2,29.1,23.3,63,46,30,29.97,29.85,16,3,16,0.00
2014-6-17,62.4,47.1,34.0,35.3,32.2,28.9,88,60,34,30.09,29.97,13,2,13,0.00
2014-6-18,71.2,48.2,38.3,40.7,36.9,34.4,92,69,32,30.09,30.03,10,2,10,0.00
2014-6-19,82.9,69.5,47.7,40.8,37.4,31.7,77,34,19,30.09,30.00,13,2,13,0.00
2014-6-20,76.8,60.9,48.9,44.3,39.3,33.5,79,49,23,30.09,30.06,12,1,12,0.00
2014-6-21,78.4,59.5,42.6,39.4,34.7,28.0,82,44,22,30.09,30.00,11,0,11,0.00
2014-6-22,80.1,59.3,50.7,36.1,32.7,29.5,50,38,20,30.09,30.06,8,0,8,0.00
2014-6-23,86.9,73.7,60.6,49.2,41.0,39.1,51,33,19,30.09,30.00,9,1,14,0.00
2014-6-24,76.1,66.6,50.9,48.5,42.0,38.8,85,44,29,30.11,30.06,11,1,11,0.00
2014-6-25,66.2,57.4,52.9,56.3,48.7,42.0,98,75,47,30.09,29.91,10,0,10,0.46
2014-6-26,53.1,51.9,51.3,52.3,51.3,50.5,98,98,98,29.91,29.88,8,1,8,0.00
2014-6-27,58.1,54.9,52.9,46.4,41.6,37.7,75,61,50,29.97,29.94,13,4,13,0.00
2014-6-28,74.3,59.1,47.8,43.0,38.9,30.8,82,51,23,30.09,29.97,13,2,13,0.00
2014-6-29,77.2,59.6,44.8,42.7,38.6,33.9,78,50,22,30.17,30.06,15,1,15,0.00
2014-6-30,87.3,65.5,46.9,42.7,38.7,30.5,75,44,19,30.17,30.09,9,0,9,0.00
2014-7-1,85.1,63.5,55.8,40.3,36.4,34.9,46,38,19,30.09,29.94,10,0,10,0.00
2014-7-2,89.8,74.2,65.3,60.6,47.6,39.4,72,41,20,30.06,29.91,17,1,17,0.13
2014-7-3,88.2,68.9,54.5,54.8,46.9,34.9,90,53,18,30.09,30.03,11,1,11,0.00
2014-7-4,61.3,56.9,52.9,46.6,43.0,37.5,78,60,47,30.09,30.06,11,1,11,0.00
2014-7-6,94.3,81.6,66.9,45.7,42.5,40.3,41,27,16,30.20,30.14,13,1,13,0.00
2014-7-7,95.4,76.4,61.7,46.7,43.4,36.2,55,34,17,30.17,30.06,10,0,10,0.00
2014-7-8,99.7,76.8,65.5,62.0,48.4,42.6,82,40,17,30.11,30.06,20,1,20,0.87
2014-7-9,94.6,77.7,64.9,58.5,48.7,39.1,78,41,17,30.09,30.00,14,1,14,0.00
2014-7-10,96.8,75.3,57.0,43.6,38.7,30.5,56,30,13,30.03,29.94,13,2,13,0.00
2014-7-11,80.6,70.2,61.2,45.9,39.3,34.6,48,33,21,30.11,30.03,17,1,17,0.00
2014-7-14,96.6,85.8,70.3,46.2,44.0,41.4,38,24,17,30.17,30.11,13,1,13,0.00
2014-7-15,91.9,71.3,64.0,47.4,41.5,35.8,46,35,19,30.17,30.14,8,0,8,0.00
2014-7-16,99.3,84.3,65.5,48.4,43.7,38.7,48,26,16,30.14,30.06,13,1,13,0.00
2014-7-17,93.7,73.7,61.3,44.9,41.4,34.9,52,34,18,30.09,30.00,14,2,14,0.00
2014-7-18,92.8,71.2,53.6,42.2,36.6,27.0,49,31,14,30.11,30.06,15,2,15,0.00
2014-7-19,93.0,73.4,56.7,46.3,42.0,37.9,63,35,17,30.14,30.06,12,1,12,0.00
2014-7-20,87.4,68.8,56.8,48.8,43.1,28.8,70,42,22,30.06,29.94,17,4,17,0.00
2014-7-21,80.4,65.8,53.8,41.1,35.9,28.8,55,34,21,30.09,29.97,10,1,10,0.00
2014-7-22,77.4,65.5,59.9,61.3,50.8,38.6,82,60,32,30.11,30.03,14,3,14,0.00
2014-7-23,66.0,56.7,45.1,53.7,44.7,30.0,91,66,39,30.14,30.03,17,4,17,0.07
2014-7-24,75.7,57.0,42.4,42.2,36.6,31.6,72,50,25,30.23,30.14,10,1,10,0.00
2014-7-25,86.7,64.2,44.2,45.2,40.1,35.2,89,48,19,30.17,30.06,10,1,10,0.00
2014-7-26,91.6,71.2,53.4,45.8,40.4,30.7,63,37,18,30.17,30.11,11,0,11,0.00
2014-7-27,70.9,64.2,61.2,40.6,37.8,36.0,44,38,32,30.17,30.17,9,1,9,0.00
2014-7-28,97.9,92.0,88.2,44.7,42.5,40.5,20,18,16,30.17,30.14,9,2,10,0.00
2014-7-30,95.9,80.5,62.6,47.0,40.7,33.8,52,26,17,30.20,30.11,17,2,17,0.00
2014-7-31,95.7,78.5,68.0,44.0,39.4,35.3,39,26,17,30.17,30.09,15,0,15,0.00
2014-8-1,94.6,77.4,62.6,56.5,44.0,38.0,53,33,17,30.14,30.06,9,1,9,0.00
2014-8-2,90.9,72.7,64.0,60.1,45.6,39.4,69,39,21,30.09,30.03,9,0,9,0.13
2014-8-3,88.5,73.3,61.9,55.7,49.2,40.2,72,47,22,30.11,30.03,10,0,10,0.00
2014-8-4,93.9,77.5,67.3,59.0,44.7,37.5,65,33,18,30.09,30.03,11,1,11,0.00
2014-8-5,90.9,74.3,62.2,59.4,46.6,37.0,76,43,18,30.14,30.09,12,1,12,0.00
2014-8-6,91.2,75.8,59.2,50.7,42.7,35.6,58,33,19,30.17,30.09,10,1,10,0.00
2014-8-7,90.5,70.4,54.7,50.6,43.8,35.1,81,44,18,30.14,30.06,12,1,12,0.00
2014-8-8,88.2,68.9,53.4,40.4,37.2,29.6,57,34,18,30.11,30.09,11,1,11,0.00
2014-8-9,88.7,70.0,57.0,40.4,35.6,29.5,46,30,18,30.17,30.11,13,1,13,0.00
2014-8-10,97.7,74.6,61.7,57.9,38.3,27.8,78,29,16,30.20,30.09,28,2,28,0.13
2014-8-11,95.2,73.7,61.7,60.2,47.1,38.6,78,43,16,30.17,30.03,15,2,15,0.27
2014-8-12,69.8,63.6,57.2,57.6,50.0,44.6,83,62,45,30.06,25.78,16,3,16,0.07
2014-8-13,78.4,58.6,51.8,52.7,48.1,38.8,94,71,31,30.07,25.81,23,2,23,0.13
2014-8-14,67.6,56.4,49.5,56.5,50.0,44.1,97,81,44,30.07,30.04,10,1,10,0.00
2014-8-15,82.8,66.4,52.2,55.1,49.0,43.0,92,58,29,30.13,30.04,9,0,9,0.07
2014-8-16,90.0,69.2,52.5,53.1,47.1,33.4,94,53,20,30.16,30.13,11,1,11,0.00
2014-8-17,91.4,70.5,56.5,53.5,44.9,39.2,69,43,19,30.16,30.10,12,1,12,0.00
2014-8-18,92.1,73.7,59.2,48.7,43.0,37.5,59,36,18,30.10,29.98,8,0,10,0.00
2014-8-19,87.4,71.7,60.4,55.3,47.2,40.5,77,45,20,29.98,29.92,16,1,16,0.00
2014-8-20,80.4,65.4,54.7,51.0,44.8,34.4,83,52,23,30.04,29.95,13,1,13,0.00
2014-8-21,82.9,62.5,46.9,45.3,38.5,28.8,92,48,20,30.07,29.98,15,2,15,0.00
2014-8-22,77.2,61.0,46.8,44.2,37.8,33.7,68,44,25,30.13,30.01,10,1,10,0.00
2014-8-23,80.6,60.2,53.1,46.3,41.7,35.2,72,54,23,30.19,30.10,8,0,10,0.00
2014-8-24,82.9,63.4,50.0,46.3,39.1,35.8,66,43,21,30.10,29.95,7,1,10,0.00
2014-8-25,81.5,65.0,51.1,45.6,41.2,34.6,75,46,23,30.10,30.01,8,1,10,0.00
2014-8-26,89.6,71.0,53.1,40.5,36.7,32.3,54,31,18,30.16,30.10,0,0,12,0.00
2014-8-27,94.8,78.0,56.8,46.7,41.6,32.6,54,29,17,30.16,30.10,13,1,13,0.00
2014-8-28,91.2,71.6,56.7,49.2,43.8,35.4,71,41,18,30.16,30.10,10,1,10,0.00
2014-8-29,85.8,67.0,52.7,45.8,40.6,33.4,71,41,19,30.10,29.98,13,1,13,0.00
2014-8-30,65.8,58.7,50.7,47.9,43.1,36.6,73,57,39,30.04,29.98,17,2,17,0.00
2014-8-31,76.6,58.7,46.2,42.7,39.5,36.0,82,53,25,30.13,30.04,15,1,15,0.00
2014-9-1,85.1,61.9,45.1,42.5,39.7,34.8,87,51,20,30.13,30.04,10,1,10,0.00
2014-9-2,85.5,69.1,54.3,43.6,38.4,32.6,55,35,19,29.98,29.92,10,2,15,0.00
2014-9-3,77.5,61.8,41.2,38.4,32.5,27.0,74,38,21,30.07,29.98,10,1,14,0.00
2014-9-4,59.4,57.3,55.6,33.3,32.6,31.8,41,39,37,30.13,30.10,9,3,10,0.00
2014-9-5,84.7,63.6,48.7,38.7,33.9,27.7,58,36,19,30.19,30.10,10,2,10,0.00
2014-9-6,89.6,66.8,51.8,40.4,31.2,26.0,38,28,18,30.16,30.01,11,1,11,0.00
2014-9-7,91.4,70.5,53.2,39.8,30.0,22.8,40,24,12,30.04,29.95,8,0,9,0.00
2014-9-8,88.9,66.6,53.2,37.1,30.0,22.9,45,27,13,30.01,29.92,13,1,13,0.00
2014-9-9,78.4,61.5,49.1,42.6,36.7,28.3,77,43,21,30.16,30.01,10,1,10,0.00
2014-9-10,80.4,60.8,43.3,39.3,36.1,27.0,79,44,22,30.22,30.13,9,1,10,0.00
2014-9-11,73.0,54.8,41.9,32.6,25.1,18.5,45,32,22,30.27,30.19,11,2,11,0.00
2014-9-12,85.8,58.0,38.1,37.4,26.4,20.7,51,32,18,30.19,30.01,13,1,13,0.00
2014-9-13,83.3,62.7,48.7,36.9,26.4,19.2,34,26,18,30.10,29.98,9,0,11,0.00
2014-9-14,87.6,66.1,47.3,39.3,29.2,19.8,41,26,18,30.04,30.01,9,1,10,0.00
2014-9-15,90.0,68.1,53.1,40.8,30.7,24.5,37,25,18,30.04,29.98,18,1,18,0.00
2014-9-16,90.9,70.6,58.6,40.1,32.8,26.5,34,26,15,30.01,29.95,15,2,18,0.00
2014-9-17,83.3,67.9,58.5,39.3,35.5,31.9,45,31,19,29.98,29.80,15,2,17,0.00
2014-9-18,70.2,61.6,55.0,51.6,45.5,37.8,85,57,35,30.07,29.83,14,3,17,0.00
2014-9-19,86.2,65.5,50.7,50.7,44.5,39.2,91,54,20,30.16,30.04,8,0,9,0.00
2014-9-20,90.0,71.9,59.2,46.1,42.9,38.5,57,38,20,30.16,30.07,10,1,10,0.00
2014-9-21,92.5,70.1,58.5,47.1,42.5,37.5,54,39,19,30.10,30.01,12,0,12,0.00
2014-9-22,82.2,68.6,59.9,51.4,45.3,38.5,68,46,23,30.07,30.01,13,2,17,0.00
2014-9-23,72.3,65.0,54.1,45.2,40.8,34.0,70,43,30,30.04,29.89,15,4,20,0.00
2014-9-24,66.4,58.9,53.2,55.1,44.7,33.3,98,66,30,30.01,29.89,14,3,15,0.00
2014-9-25,60.6,52.9,45.3,47.3,42.0,37.5,87,67,47,30.01,29.95,13,2,13,0.00
2014-9-26,69.8,53.2,42.1,42.0,39.0,35.3,94,63,32,30.07,30.01,10,1,10,0.07
2014-9-27,68.2,54.6,46.6,46.4,42.1,37.4,85,65,35,30.07,30.01,12,1,12,0.00
2014-9-28,73.9,58.9,49.6,43.5,41.4,39.4,75,54,32,30.04,29.98,11,1,12,0.00
2014-9-29,74.1,57.4,47.8,46.5,42.0,32.8,94,61,25,30.01,29.95,13,2,15,0.00
2014-9-30,64.2,51.6,41.0,37.9,34.2,31.5,79,54,33,30.10,30.01,9,1,17,0.00
2014-10-1,73.4,63.6,49.8,32.7,29.1,23.1,46,28,21,30.16,30.13,5,0,8,0.00
2014-10-2,77.2,56.5,38.5,37.7,30.9,25.2,82,43,21,30.30,30.13,11,1,11,0.00
2014-10-3,86.4,61.7,43.2,39.9,31.9,25.2,61,35,19,30.30,30.24,9,1,9,0.00
2014-10-4,90.9,66.6,45.9,39.7,31.7,23.1,53,30,15,30.27,30.22,10,2,11,0.00
2014-10-5,91.8,67.8,49.6,41.4,33.2,26.6,50,30,17,30.22,30.13,8,0,8,12.18
2014-10-6,87.4,63.3,51.6,42.4,39.3,36.4,63,43,19,30.16,30.10,8,2,8,0.00
2014-10-7,55.6,50.6,48.2,37.9,36.6,34.2,63,59,50,30.07,30.04,8,4,8,0.00
2014-10-8,82.6,66.8,48.2,38.0,33.6,26.2,66,32,19,30.07,30.01,5,1,13,0.00
2014-10-9,81.7,61.8,47.7,36.8,30.3,24.3,46,32,20,30.10,30.04,4,0,6,0.00
2014-10-10,78.1,58.0,41.7,37.3,30.8,20.7,64,37,23,30.13,30.10,8,2,11,0.00
2014-10-11,67.8,56.2,46.4,46.7,36.6,29.4,67,49,28,30.22,30.10,15,3,17,0.00
2014-10-12,67.8,50.7,39.4,36.3,32.4,25.8,86,56,23,30.27,30.19,10,2,10,12.18
2014-10-13,62.2,61.0,59.5,25.5,24.7,23.6,25,25,24,29.89,29.86,17,5,17,20.71
2014-10-14,60.8,52.9,45.9,46.0,34.1,19.9,98,53,25,29.92,29.68,10,1,10,20.71
2014-10-15,53.1,45.5,39.9,44.9,35.5,27.4,98,70,42,30.04,29.62,19,6,19,20.71
2014-10-16,72.5,50.1,38.8,35.7,32.6,26.6,83,56,25,30.04,29.92,13,2,13,0.00
2014-10-17,55.4,47.9,44.8,38.0,35.0,31.7,69,61,51,29.92,29.89,13,2,13,0.00
2014-10-25,57.6,45.9,39.4,44.2,37.0,30.1,95,72,39,29.92,29.62,34,9,34,0.00
2014-10-26,51.6,40.6,35.4,35.7,32.2,25.8,98,74,39,30.07,29.92,17,5,17,0.00
2014-10-27,54.7,46.7,33.4,32.5,29.8,27.0,94,55,36,30.10,30.04,11,4,11,0.00
2014-10-28,58.6,51.9,48.0,47.2,41.5,30.9,97,70,41,30.10,30.01,15,6,17,794.10
2014-10-29,55.6,50.0,44.8,47.2,40.5,34.2,98,70,52,30.16,30.10,12,3,12,0.00
2014-10-30,64.6,52.9,47.7,49.3,45.8,41.2,98,79,44,30.10,29.83,13,2,13,0.00
2014-10-31,48.2,43.8,38.7,47.7,39.6,33.7,98,86,64,29.86,29.77,15,2,15,0.00
2014-11-1,52.0,40.9,33.8,36.5,30.3,25.2,96,70,37,30.01,29.74,17,2,17,0.00
2014-11-2,55.0,38.7,32.2,38.9,31.8,28.5,94,78,39,30.16,30.01,13,2,13,7.14
2014-11-3,53.8,44.9,39.6,40.8,37.5,34.1,87,76,58,30.19,30.13,15,6,15,0.00
2014-11-4,54.5,48.0,43.3,47.2,43.2,36.3,97,84,68,30.27,30.10,21,6,21,0.00
2014-11-5,62.2,57.2,48.4,47.7,44.6,41.1,86,63,51,30.27,30.10,19,6,19,12.14
2014-11-6,62.4,53.2,42.8,42.2,37.9,29.6,68,56,38,30.24,30.01,25,7,25,20.63
2014-11-7,64.8,46.8,37.8,36.2,33.5,28.6,89,63,32,30.33,30.24,7,0,7,0.00
2014-11-8,71.1,50.3,34.9,42.2,36.4,29.4,91,63,32,30.30,30.10,13,4,13,0.00
2014-11-9,63.9,49.7,36.3,42.9,32.7,24.2,80,53,35,30.10,29.89,24,4,24,0.00
2014-11-10,56.1,38.7,29.5,30.4,24.5,18.8,79,58,33,30.07,29.95,10,1,12,0.00
2014-11-11,40.1,27.2,14.2,19.8,12.4,-1.9,70,54,41,30.16,30.01,17,4,17,0.00
2014-11-12,30.9,17.1,8.2,8.4,0.3,-7.0,52,47,38,30.19,30.01,13,1,13,0.00
2014-11-13,23.2,18.2,14.2,20.8,12.1,3.7,96,77,52,30.01,29.86,6,0,8,0.00
2014-11-14,25.7,20.1,15.3,25.2,16.0,9.1,98,84,76,30.10,29.86,0,0,0,0.00
2014-11-15,33.1,18.9,8.8,13.9,8.6,3.9,87,65,44,30.36,30.10,6,0,6,0.00
2014-11-16,42.1,19.2,6.8,20.5,9.3,0.6,75,67,40,30.36,30.33,9,1,9,0.00
2014-11-17,45.1,26.0,14.9,22.9,15.6,9.0,85,66,40,30.33,30.19,5,0,5,0.00
2014-11-18,47.5,30.8,20.3,25.7,18.9,15.0,80,64,39,30.19,30.10,9,1,10,0.00
2014-11-19,46.8,34.7,28.0,36.2,25.4,18.0,98,71,39,30.10,29.92,16,2,16,498.07
2014-11-20,45.1,40.5,36.7,36.7,34.2,31.0,96,79,60,30.01,29.95,12,2,16,0.00
2014-11-21,38.3,36.6,35.2,37.4,34.3,31.7,98,92,81,29.95,29.74,21,7,21,0.00
2014-11-24,48.6,43.3,37.8,42.9,30.9,22.3,93,63,44,30.30,30.22,21,7,21,0.00
2014-11-25,54.1,48.0,42.8,44.2,39.9,36.6,93,74,52,30.30,30.22,17,6,17,0.00
2014-11-26,57.9,46.8,36.1,37.7,33.3,27.9,97,63,39,30.27,30.07,20,7,20,0.00
2014-11-27,48.7,46.3,43.5,42.6,34.3,25.6,95,65,41,30.07,29.92,28,9,28,0.00
2014-11-28,43.3,40.2,35.6,40.1,38.3,35.1,98,93,78,29.71,29.54,29,11,29,19.28
2014-11-29,40.1,33.0,25.3,35.3,22.3,15.9,98,66,41,29.95,29.57,31,3,31,0.00
2014-11-30,33.4,24.3,19.9,20.9,18.1,14.4,94,78,49,30.04,29.95,9,0,9,0.00
2014-12-1,39.0,32.8,18.7,38.5,30.6,14.4,98,92,73,30.04,29.98,17,5,17,0.00
2014-12-2,39.4,31.9,23.7,38.7,31.4,23.2,98,98,93,30.04,29.92,12,2,12,0.20
2014-12-20,43.9,39.0,34.7,43.2,38.5,34.2,98,98,98,29.83,29.74,27,10,27,0.00
2014-12-21,46.6,43.1,39.2,45.9,42.0,38.7,98,96,85,30.10,29.83,14,1,14,0.00
2014-12-22,54.1,42.2,36.3,42.2,36.9,29.9,98,83,48,30.27,30.07,9,0,9,0.00
2014-12-23,53.1,43.1,37.4,40.7,38.7,32.1,98,86,59,30.27,30.01,16,4,16,0.00
2014-12-24,41.7,35.3,27.9,38.0,30.8,21.0,98,84,71,30.01,29.71,18,3,18,0.00
2014-12-25,39.6,32.7,28.8,27.5,23.3,20.2,82,69,48,30.13,29.92,13,1,13,0.00
2014-12-26,46.2,32.8,25.2,24.9,21.1,17.7,80,63,40,30.22,30.10,6,0,6,0.00
2014-12-27,37.4,30.9,24.3,31.3,23.6,18.8,87,75,60,30.22,30.04,17,4,17,0.00
2014-12-28,36.9,32.6,27.1,27.9,19.5,12.0,84,60,41,30.13,30.01,12,1,12,0.00
2014-12-29,28.2,21.4,11.1,27.0,18.4,7.5,96,88,72,30.36,29.98,15,2,15,0.00
2014-12-30,23.5,12.3,3.7,10.1,1.4,-7.5,85,64,43,30.68,30.36,11,2,11,0.00
2014-12-31,23.5,14.6,3.7,4.8,-1.8,-11.1,55,47,44,30.62,30.38,6,1,6,0.00
2015-1-1,27.5,16.5,14.0,11.6,3.7,1.8,58,56,47,30.38,30.29,6,0,6,0.00
2015-1-2,42.1,28.5,21.6,28.5,19.3,8.8,86,69,49,30.29,30.21,13,2,13,0.00